Time;durP1;ratioP1;P1;durP2;ratioP2;P2;SDS_P1;SDS_P2;PMS_P1;PMS_P2;Temp;Humidity;BMP_temperature;BMP_pressure;BME280_temperature;BME280_humidity;BME280_pressure;Samples;Min_cycle;Max_cycle;Signal;HPM_P1;HPM_P2
2023/03/20 00:01:25;;;;;;;5.50;2.37;;;12.90;99.90;;;13.05;59.62;101517.16;6119538;22;101025;-41
2023/03/20 00:03:51;;;;;;;5.23;2.40;;;13.00;99.90;;;13.14;60.19;101521.28;6092029;22;99048;-51
2023/03/20 00:06:26;;;;;;;6.03;2.20;;;13.00;99.90;;;13.24;59.58;101534.22;6122003;22;97468;-41
2023/03/20 00:08:54;;;;;;;8.07;2.53;;;13.20;99.90;;;13.20;59.22;101527.28;6120546;22;97019;-43
2023/03/20 00:11:35;;;;;;;3.60;2.07;;;13.10;99.90;;;13.21;59.89;101526.38;6122638;22;97200;-43
2023/03/20 00:14:14;;;;;;;3.27;2.07;;;13.00;99.90;;;13.14;60.09;101529.22;6078080;22;97475;-42
2023/03/20 00:16:43;;;;;;;5.60;2.50;;;13.00;99.90;;;13.09;59.60;101529.38;6097522;22;97139;-43
2023/03/20 00:19:30;;;;;;;5.20;2.70;;;12.90;99.90;;;13.11;59.20;101538.16;6119842;22;97450;-43
2023/03/20 00:21:57;;;;;;;3.57;1.97;;;12.90;99.90;;;13.27;60.13;101531.47;6120186;22;97645;-41
2023/03/20 00:24:24;;;;;;;7.40;2.83;;;13.10;99.90;;;13.28;59.56;101530.53;6121833;22;108025;-42
2023/03/20 00:26:52;;;;;;;3.90;2.23;;;13.10;99.90;;;13.27;59.63;101536.75;6123363;22;97508;-41
2023/03/20 00:29:26;;;;;;;8.13;2.70;;;13.10;99.90;;;13.36;58.96;101539.13;6117495;22;97766;-40
2023/03/20 00:31:53;;;;;;;4.87;2.27;;;13.20;99.90;;;13.44;58.87;101551.22;6119759;22;98791;-41
2023/03/20 00:34:24;;;;;;;6.83;2.90;;;13.20;99.90;;;13.46;58.46;101554.72;6121753;22;99227;-40
2023/03/20 00:36:51;;;;;;;4.97;2.00;;;13.30;99.90;;;13.50;59.03;101549.25;6123848;22;97166;-43
2023/03/20 00:39:18;;;;;;;4.67;2.60;;;13.30;99.90;;;13.60;58.65;101555.13;6118628;22;96641;-41
2023/03/20 00:41:49;;;;;;;4.43;2.13;;;13.30;99.90;;;13.57;58.46;101547.25;6124888;22;97266;-41
2023/03/20 00:44:29;;;;;;;6.07;2.23;;;13.30;99.90;;;13.60;58.14;101550.69;6119098;22;97115;-40
2023/03/20 00:47:02;;;;;;;8.63;2.07;;;13.40;99.90;;;13.63;57.95;101552.38;6092818;22;97288;-44
2023/03/20 00:49:33;;;;;;;5.23;2.40;;;13.40;99.90;;;13.61;58.58;101554.22;6123034;22;97327;-41
2023/03/20 00:52:02;;;;;;;6.13;2.40;;;13.40;99.90;;;13.67;58.05;101546.03;6119676;22;97831;-40
2023/03/20 00:54:28;;;;;;;4.20;2.23;;;13.40;99.90;;;13.61;57.84;101555.06;6124359;22;97212;-41
2023/03/20 00:57:07;;;;;;;8.00;3.17;;;13.40;99.90;;;13.58;58.44;101559.59;6120181;22;97246;-43
2023/03/20 00:59:39;;;;;;;5.43;2.37;;;13.40;99.90;;;13.58;58.47;101570.19;6099043;22;97472;-43
2023/03/20 01:02:05;;;;;;;4.43;2.40;;;13.40;99.90;;;13.62;57.86;101566.53;6119599;22;97242;-43
2023/03/20 01:04:41;;;;;;;4.90;1.77;;;13.40;99.90;;;13.67;57.82;101557.50;6123039;22;98018;-42
2023/03/20 01:07:12;;;;;;;3.40;2.23;;;13.50;99.90;;;13.57;58.17;101548.13;6120846;22;97495;-44
2023/03/20 01:09:38;;;;;;;7.53;3.13;;;13.40;99.90;;;13.65;58.22;101545.22;6124765;22;97289;-42
2023/03/20 01:12:06;;;;;;;7.07;3.17;;;13.40;99.90;;;13.63;57.90;101552.38;6117540;22;102660;-40
2023/03/20 01:14:33;;;;;;;7.73;3.07;;;13.40;99.90;;;13.69;57.92;101554.78;6125228;22;98155;-42
2023/03/20 01:16:59;;;;;;;5.23;3.03;;;13.50;99.90;;;13.65;58.39;101550.53;6119463;22;97101;-40
2023/03/20 01:19:25;;;;;;;6.43;2.43;;;13.40;99.90;;;13.64;58.04;101547.00;6123140;22;97153;-41
2023/03/20 01:21:51;;;;;;;5.97;2.67;;;13.40;99.90;;;13.60;58.27;101533.91;6122344;22;101058;-51
2023/03/20 01:24:16;;;;;;;5.23;2.53;;;13.30;99.90;;;13.63;57.69;101539.09;6121725;22;99937;-43
2023/03/20 01:26:44;;;;;;;6.60;3.00;;;13.40;99.90;;;13.70;57.74;101537.97;6124787;22;97447;-42
2023/03/20 01:29:26;;;;;;;5.53;2.73;;;13.40;99.90;;;13.70;58.02;101546.78;6120413;22;97223;-43
2023/03/20 01:31:53;;;;;;;6.03;2.73;;;13.40;99.90;;;13.82;57.28;101542.84;6120126;22;97345;-45
2023/03/20 01:34:19;;;;;;;8.43;3.33;;;13.50;99.90;;;13.77;57.04;101538.63;6123427;22;97552;-42
2023/03/20 01:36:52;;;;;;;4.47;2.60;;;13.50;99.90;;;13.78;57.06;101557.13;6124951;22;102282;-42
2023/03/20 01:39:30;;;;;;;8.77;3.33;;;13.50;99.90;;;13.81;56.43;101546.41;6119795;22;97062;-41
2023/03/20 01:41:56;;;;;;;4.80;2.77;;;13.60;99.90;;;13.87;57.28;101545.31;6092098;22;98922;-42
2023/03/20 01:44:27;;;;;;;6.00;2.80;;;13.60;99.90;;;13.98;57.45;101530.78;6124985;22;97253;-42
2023/03/20 01:46:54;;;;;;;8.40;3.33;;;13.70;99.90;;;13.96;57.21;101535.28;6118931;22;97436;-43
2023/03/20 01:49:20;;;;;;;6.93;3.13;;;13.70;99.90;;;14.06;56.92;101529.66;6119574;22;97297;-42
2023/03/20 01:51:50;;;;;;;6.87;3.27;;;13.70;99.90;;;14.01;57.21;101537.75;6125608;22;97255;-41
2023/03/20 01:54:19;;;;;;;4.83;2.77;;;13.60;99.90;;;14.03;57.51;101540.34;6119702;22;101227;-42
2023/03/20 01:56:52;;;;;;;6.00;2.40;;;13.60;99.90;;;14.07;57.29;101526.06;6123453;22;97168;-41
2023/03/20 01:59:29;;;;;;;6.53;2.80;;;13.60;99.90;;;14.08;57.19;101533.09;6122484;22;97373;-42
2023/03/20 02:01:55;;;;;;;7.97;3.63;;;13.60;99.90;;;14.07;57.15;101531.38;6119996;22;97940;-42
2023/03/20 02:04:29;;;;;;;6.30;3.00;;;13.60;99.90;;;14.04;57.30;101536.78;6123340;22;96874;-42
2023/03/20 02:06:56;;;;;;;5.40;2.90;;;13.50;99.90;;;13.99;57.79;101539.59;6094237;22;97112;-41
2023/03/20 02:09:21;;;;;;;8.03;3.43;;;13.50;99.90;;;13.91;57.77;101531.06;6097460;22;97644;-42
2023/03/20 02:11:48;;;;;;;3.87;2.40;;;13.40;99.90;;;13.88;58.03;101536.44;6123669;22;96968;-42
2023/03/20 02:14:14;;;;;;;7.57;3.37;;;13.40;99.90;;;13.87;58.13;101535.59;6092807;22;97160;-43
2023/03/20 02:16:40;;;;;;;7.40;3.03;;;13.30;99.90;;;13.87;58.17;101538.22;6123952;22;101823;-41
2023/03/20 02:19:36;;;;;;;7.33;3.00;;;13.30;99.90;;;13.88;57.97;101553.22;6119695;22;97100;-40
2023/03/20 02:22:57;;;;;;;4.40;2.17;;;13.40;99.90;;;13.95;57.77;101538.84;6120965;22;97280;-42
2023/03/20 02:26:06;;;;;;;7.00;2.60;;;13.40;99.90;;;13.96;57.64;101535.28;6092646;22;102548;-42
2023/03/20 02:29:00;;;;;;;7.87;2.73;;;13.50;99.90;;;13.87;57.91;101546.19;6092324;22;97473;-42
2023/03/20 02:32:33;;;;;;;6.10;2.80;;;13.40;99.90;;;13.76;58.58;101548.38;6119125;22;97194;-41
2023/03/20 02:35:26;;;;;;;7.13;2.80;;;13.20;99.90;;;13.79;58.37;101540.31;6031964;22;102556;-42
2023/03/20 02:38:10;;;;;;;6.73;2.80;;;13.20;99.90;;;13.84;58.15;101527.75;6119103;22;97659;-46
2023/03/20 02:40:39;;;;;;;5.10;2.57;;;13.30;99.90;;;13.92;57.87;101527.47;6123672;22;97220;-44
2023/03/20 02:43:35;;;;;;;4.87;2.53;;;13.40;99.90;;;13.96;57.59;101527.31;6118315;22;97339;-42
2023/03/20 02:46:30;;;;;;;8.17;2.97;;;13.50;99.90;;;13.88;58.26;101537.31;6117450;22;97473;-42
2023/03/20 02:49:00;;;;;;;6.47;3.27;;;13.40;99.90;;;13.93;57.91;101539.81;6089380;22;101552;-44
2023/03/20 02:51:51;;;;;;;6.00;2.90;;;13.40;99.90;;;13.94;57.90;101531.81;6096776;22;98346;-43
2023/03/20 02:54:27;;;;;;;3.40;1.53;;;13.40;99.90;;;13.97;57.43;101525.53;6093485;22;97148;-43
2023/03/20 02:57:06;;;;;;;6.67;3.03;;;13.40;99.90;;;14.02;57.33;101530.66;6092663;22;97386;-44
2023/03/20 02:59:32;;;;;;;8.77;3.10;;;13.50;99.90;;;14.06;57.27;101530.50;6123153;22;96728;-42
2023/03/20 03:02:07;;;;;;;7.60;3.17;;;13.60;99.90;;;13.96;57.61;101540.56;6119000;22;97214;-43
2023/03/20 03:04:52;;;;;;;5.20;2.90;;;13.50;99.90;;;14.00;57.57;101547.50;6124956;22;97410;-42
2023/03/20 03:07:24;;;;;;;6.40;3.03;;;13.50;99.90;;;13.95;57.65;101554.75;6114875;22;103738;-41
2023/03/20 03:10:10;;;;;;;6.07;2.60;;;13.50;99.90;;;13.97;57.62;101537.00;6095610;22;97170;-42
2023/03/20 03:12:41;;;;;;;7.20;3.43;;;13.40;99.90;;;13.94;57.29;101552.16;6096705;22;97106;-41
2023/03/20 03:15:39;;;;;;;7.77;3.43;;;13.40;99.90;;;13.88;57.43;101552.38;6120827;22;97028;-41
2023/03/20 03:18:13;;;;;;;6.10;2.90;;;13.40;99.90;;;13.90;57.56;101556.72;6118019;22;97975;-42
2023/03/20 03:20:39;;;;;;;7.03;3.27;;;13.40;99.90;;;13.94;57.75;101553.03;6121881;22;97248;-42
2023/03/20 03:23:06;;;;;;;10.30;3.20;;;13.50;99.90;;;13.92;57.53;101549.56;6093852;22;97326;-41
2023/03/20 03:25:38;;;;;;;8.27;2.93;;;13.50;99.90;;;13.85;57.85;101563.09;6124085;22;97327;-42
2023/03/20 03:28:35;;;;;;;4.90;2.20;;;13.40;99.90;;;13.77;57.55;101565.16;6088006;22;97679;-41
2023/03/20 03:31:07;;;;;;;7.77;2.60;;;13.30;99.90;;;13.73;57.36;101561.72;6117062;22;97823;-44
2023/03/20 03:33:39;;;;;;;2.97;1.37;;;13.20;99.90;;;13.85;57.71;101548.03;6109090;22;97212;-43
2023/03/20 03:36:29;;;;;;;3.83;1.90;;;13.40;99.90;;;13.93;57.45;101534.53;6119408;22;97293;-46
2023/03/20 03:39:11;;;;;;;6.37;3.03;;;13.50;99.90;;;13.95;57.18;101530.88;6121249;22;97635;-43
2023/03/20 03:41:55;;;;;;;4.50;2.00;;;13.50;99.90;;;14.03;57.10;101511.16;6124568;22;98426;-43
2023/03/20 03:45:05;;;;;;;5.37;2.20;;;13.50;99.90;;;14.11;56.80;101517.06;6119736;22;101460;-44
2023/03/20 03:47:35;;;;;;;6.13;3.13;;;13.60;99.90;;;14.11;56.63;101514.41;6122157;22;97491;-42
2023/03/20 03:50:25;;;;;;;7.13;3.03;;;13.60;99.90;;;14.04;56.99;101518.22;6093362;22;97624;-41
2023/03/20 03:52:57;;;;;;;7.77;3.10;;;13.50;99.90;;;13.90;56.80;101514.28;6096115;22;97398;-52
2023/03/20 03:55:31;;;;;;;5.70;2.80;;;13.40;99.90;;;13.83;57.63;101518.06;6123704;22;97745;-47
2023/03/20 03:58:10;;;;;;;9.03;3.27;;;13.20;99.90;;;13.82;57.97;101531.38;6120840;22;97210;-43
2023/03/20 04:00:40;;;;;;;7.30;3.27;;;13.20;99.90;;;13.83;57.81;101536.63;6098650;22;98002;-42
2023/03/20 04:03:07;;;;;;;7.03;2.73;;;13.30;99.90;;;13.86;57.69;101539.16;6069923;22;98984;-43
2023/03/20 04:05:37;;;;;;;7.90;3.13;;;13.30;99.90;;;13.82;57.62;101544.63;6124259;22;97247;-46
2023/03/20 04:08:06;;;;;;;11.23;4.23;;;13.30;99.90;;;13.70;57.16;101544.13;6094429;22;97144;-43
2023/03/20 04:10:32;;;;;;;6.07;3.27;;;13.20;99.90;;;13.67;57.49;101554.00;6125188;22;97677;-41
2023/03/20 04:12:58;;;;;;;9.70;3.33;;;13.20;99.90;;;13.87;57.62;101551.50;6120513;22;97529;-45
2023/03/20 04:15:26;;;;;;;6.67;2.93;;;13.60;99.90;;;14.06;56.78;101542.91;6125720;22;97564;-44
2023/03/20 04:17:52;;;;;;;10.20;3.60;;;13.80;99.90;;;14.06;56.36;101548.22;6120732;22;97571;-42
2023/03/20 04:20:19;;;;;;;5.93;2.93;;;13.80;99.90;;;14.11;54.10;101548.91;6122369;22;98541;-43
2023/03/20 04:22:45;;;;;;;5.47;2.77;;;14.00;99.90;;;14.20;56.11;101554.75;6124632;22;98057;-42
2023/03/20 04:25:23;;;;;;;5.27;2.33;;;14.10;99.90;;;14.38;55.69;101563.81;6118963;22;97614;-43
2023/03/20 04:27:49;;;;;;;5.40;2.20;;;14.30;99.90;;;14.35;55.10;101553.31;6097354;22;97559;-43
2023/03/20 04:30:16;;;;;;;7.27;2.47;;;14.30;99.90;;;14.49;55.01;101561.66;6118978;22;99814;-43
2023/03/20 04:32:42;;;;;;;5.33;3.00;;;14.40;99.90;;;14.38;54.93;101558.50;6124515;22;98335;-41
2023/03/20 04:35:08;;;;;;;5.33;2.67;;;14.50;99.90;;;14.63;54.97;101547.00;6119683;22;97685;-44
2023/03/20 04:37:34;;;;;;;6.57;2.70;;;14.70;99.90;;;14.70;53.38;101548.50;6124369;22;97543;-43
2023/03/20 04:40:00;;;;;;;8.00;3.23;;;14.80;99.90;;;14.64;53.43;101538.97;6118939;22;99107;-46
2023/03/20 04:42:26;;;;;;;3.47;2.20;;;14.70;99.90;;;14.75;54.33;101538.53;6097780;22;97632;-42
2023/03/20 04:44:52;;;;;;;4.80;2.67;;;14.70;99.90;;;14.55;54.27;101532.22;6118973;22;97613;-49
2023/03/20 04:47:17;;;;;;;5.10;2.60;;;14.40;99.90;;;14.42;51.78;101522.97;6123274;22;97414;-51
2023/03/20 04:49:43;;;;;;;7.00;3.00;;;14.30;99.90;;;14.34;54.30;101525.06;6124284;22;97243;-54
2023/03/20 04:52:09;;;;;;;7.00;3.10;;;14.00;99.90;;;14.27;54.29;101523.53;6120640;22;97111;-48
2023/03/20 04:54:35;;;;;;;7.37;3.43;;;14.00;99.90;;;14.18;55.04;101534.50;6122931;22;97175;-53
2023/03/20 04:57:01;;;;;;;4.33;2.53;;;13.80;99.90;;;14.08;54.13;101538.41;6093308;22;97243;-50
2023/03/20 04:59:27;;;;;;;3.37;1.67;;;13.70;99.90;;;14.07;55.66;101531.38;6123134;22;102625;-49
2023/03/20 05:01:52;;;;;;;5.97;3.03;;;13.70;99.90;;;13.99;54.59;101532.50;6120744;22;97502;-49
2023/03/20 05:04:18;;;;;;;7.97;2.10;;;13.60;99.90;;;14.08;55.87;101527.78;6126136;22;98376;-49
2023/03/20 05:06:47;;;;;;;6.40;3.17;;;13.70;99.90;;;14.13;55.91;101526.69;6127259;22;96974;-48
2023/03/20 05:09:15;;;;;;;5.47;2.63;;;13.80;99.90;;;14.16;55.62;101529.22;6108039;22;97343;-53
2023/03/20 05:11:41;;;;;;;7.03;2.50;;;13.80;99.90;;;14.20;52.07;101530.00;6112935;22;97125;-51
2023/03/20 05:14:08;;;;;;;7.57;3.03;;;14.00;99.90;;;13.98;54.65;101528.13;6082506;22;97465;-52
2023/03/20 05:16:34;;;;;;;5.40;2.53;;;13.70;99.90;;;14.16;55.69;101520.41;6088534;22;97620;-53
2023/03/20 05:19:00;;;;;;;8.33;2.93;;;13.90;99.90;;;14.19;52.52;101507.91;6107920;22;97078;-47
2023/03/20 05:21:26;;;;;;;6.70;2.90;;;14.00;99.90;;;14.11;54.03;101509.09;6110327;22;97401;-50
2023/03/20 05:23:51;;;;;;;5.73;2.63;;;13.80;99.90;;;14.01;54.36;101521.81;6111191;22;97434;-51
2023/03/20 05:26:17;;;;;;;4.93;2.10;;;13.70;99.90;;;14.07;55.63;101512.81;6106972;22;97431;-50
2023/03/20 05:28:43;;;;;;;3.37;2.13;;;13.80;99.90;;;14.25;55.36;101506.81;6113087;22;97020;-51
2023/03/20 05:31:09;;;;;;;5.67;2.27;;;14.10;99.90;;;14.42;54.74;101501.72;6104599;22;98379;-50
2023/03/20 05:33:35;;;;;;;4.87;2.10;;;14.40;99.90;;;14.56;54.62;101515.38;6110066;22;97179;-54
2023/03/20 05:36:01;;;;;;;5.33;2.50;;;14.60;99.90;;;14.65;54.17;101519.47;6108479;22;97232;-51
2023/03/20 05:38:27;;;;;;;7.93;3.30;;;14.70;99.90;;;14.70;53.83;101521.94;6111646;22;97205;-53
2023/03/20 05:40:58;;;;;;;5.53;2.27;;;14.60;99.90;;;14.67;54.06;101533.53;6109082;22;97673;-53
2023/03/20 05:43:24;;;;;;;3.70;2.17;;;14.50;99.90;;;14.74;53.93;101534.16;6086945;22;97197;-50
2023/03/20 05:45:50;;;;;;;5.47;2.37;;;14.60;99.90;;;14.80;52.73;101533.94;6092783;22;96774;-49
2023/03/20 05:48:16;;;;;;;8.60;3.43;;;14.70;99.90;;;14.85;52.09;101537.25;6116485;22;97838;-51
2023/03/20 05:50:42;;;;;;;3.20;2.20;;;14.80;99.90;;;14.88;53.32;101538.00;6122855;22;97965;-50
2023/03/20 05:53:17;;;;;;;5.17;2.70;;;14.80;99.90;;;14.96;53.17;101535.06;6117145;22;97634;-49
2023/03/20 05:55:43;;;;;;;4.63;2.63;;;14.90;99.90;;;14.96;53.22;101537.72;6123706;22;97714;-46
2023/03/20 05:58:10;;;;;;;5.80;2.40;;;14.90;99.90;;;14.97;53.03;101542.09;6118086;22;97090;-50
2023/03/20 06:00:37;;;;;;;8.33;3.30;;;14.80;99.90;;;14.97;53.17;101535.91;6094682;22;97139;-51
2023/03/20 06:03:05;;;;;;;2.97;1.80;;;14.80;99.90;;;14.95;52.98;101533.31;6121051;22;97432;-51
2023/03/20 06:05:32;;;;;;;6.10;2.00;;;14.70;99.90;;;14.87;53.32;101535.41;6123741;22;97371;-53
2023/03/20 06:07:58;;;;;;;7.83;3.47;;;14.50;99.90;;;14.74;52.93;101527.06;6117451;22;97742;-49
2023/03/20 06:10:26;;;;;;;6.63;2.90;;;14.40;99.90;;;14.61;53.67;101540.84;6121911;22;97075;-51
2023/03/20 06:12:52;;;;;;;8.73;2.93;;;14.10;99.90;;;14.46;53.93;101550.28;6119761;22;97454;-55
2023/03/20 06:15:18;;;;;;;6.13;3.13;;;13.90;99.90;;;14.28;52.66;101546.50;6096779;22;97492;-52
2023/03/20 06:17:44;;;;;;;9.97;2.93;;;13.70;99.90;;;14.18;54.84;101542.47;6120440;22;97307;-49
2023/03/20 06:20:11;;;;;;;4.40;2.03;;;13.60;99.90;;;14.05;54.66;101539.38;6118142;22;98139;-51
2023/03/20 06:22:36;;;;;;;5.20;2.17;;;13.50;99.90;;;14.08;55.69;101543.72;6121990;22;97160;-48
2023/03/20 06:25:02;;;;;;;9.43;2.93;;;13.50;99.90;;;14.20;55.52;101540.63;6118701;22;97321;-54
2023/03/20 06:27:29;;;;;;;6.97;3.23;;;13.80;99.90;;;14.31;54.84;101541.06;6122183;22;97023;-51
2023/03/20 06:29:56;;;;;;;6.70;2.97;;;14.00;99.90;;;14.18;54.80;101535.38;6119293;22;96943;-49
2023/03/20 06:32:22;;;;;;;5.73;2.47;;;13.90;99.90;;;14.28;53.76;101547.34;6123141;22;97006;-51
2023/03/20 06:34:47;;;;;;;6.93;3.17;;;14.00;99.90;;;14.27;53.02;101550.06;6107510;22;96892;-51
2023/03/20 06:37:13;;;;;;;5.27;2.50;;;14.10;99.90;;;14.43;54.45;101540.59;6103946;22;103507;-57
2023/03/20 06:39:40;;;;;;;5.47;2.20;;;14.30;99.90;;;14.51;54.50;101533.28;6096881;22;97404;-50
2023/03/20 06:42:06;;;;;;;7.60;2.67;;;14.40;99.90;;;14.44;51.27;101534.41;6121413;22;97218;-52
2023/03/20 06:44:32;;;;;;;4.10;1.90;;;14.30;99.90;;;14.24;52.98;101543.09;6125334;22;97223;-52
2023/03/20 06:46:57;;;;;;;2.80;1.97;;;14.00;99.90;;;14.25;54.84;101546.63;6117702;22;99351;-50
2023/03/20 06:49:23;;;;;;;7.60;2.57;;;13.90;99.90;;;14.41;54.38;101542.47;6123802;22;97343;-53
2023/03/20 06:51:49;;;;;;;4.30;2.07;;;14.20;99.90;;;14.48;53.70;101546.66;6125275;22;97074;-54
2023/03/20 06:54:15;;;;;;;3.33;2.20;;;14.40;99.90;;;14.52;53.42;101553.59;6119008;22;97469;-50
2023/03/20 06:56:40;;;;;;;6.23;1.80;;;14.40;99.90;;;14.53;54.24;101552.66;6124621;22;99959;-54
2023/03/20 06:59:06;;;;;;;4.67;2.20;;;14.40;99.90;;;14.44;53.82;101560.09;6119800;22;115242;-53
2023/03/20 07:01:32;;;;;;;5.77;2.57;;;14.20;99.90;;;14.32;53.83;101558.75;6125482;22;97140;-52
2023/03/20 07:03:58;;;;;;;5.13;2.63;;;14.00;99.90;;;14.25;54.59;101573.16;6121750;22;98013;-52
2023/03/20 07:06:24;;;;;;;6.77;2.87;;;13.90;99.90;;;14.34;54.34;101583.44;6124519;22;97044;-52
2023/03/20 07:08:51;;;;;;;6.77;2.93;;;14.10;99.90;;;14.43;54.34;101577.78;6124656;22;97372;-54
2023/03/20 07:11:17;;;;;;;8.47;2.57;;;14.30;99.90;;;14.53;54.17;101584.50;6119672;22;97146;-51
2023/03/20 07:13:43;;;;;;;9.40;3.30;;;14.50;99.90;;;14.63;52.85;101594.81;6124901;22;97482;-54
2023/03/20 07:16:10;;;;;;;7.43;3.27;;;14.70;99.90;;;14.64;52.81;101593.88;6122647;22;97195;-54
2023/03/20 07:18:37;;;;;;;8.90;3.47;;;14.70;99.90;;;14.48;52.50;101602.41;6109112;22;98482;-50
2023/03/20 07:21:06;;;;;;;5.50;2.60;;;14.50;99.90;;;14.41;52.64;101605.31;6053676;22;97482;-54
2023/03/20 07:23:33;;;;;;;5.07;2.67;;;14.40;99.90;;;14.30;51.23;101597.72;6113037;22;97697;-54
2023/03/20 07:25:59;;;;;;;6.80;2.80;;;14.40;99.90;;;14.44;53.78;101606.09;6103693;22;98242;-55
2023/03/20 07:28:25;;;;;;;6.47;2.83;;;14.40;99.90;;;14.41;50.72;101607.97;6104065;22;97458;-53
2023/03/20 07:30:51;;;;;;;5.37;2.47;;;14.50;99.90;;;14.46;51.20;101609.53;6111878;22;97360;-51
2023/03/20 07:33:18;;;;;;;5.57;2.50;;;14.50;99.90;;;14.35;52.55;101605.53;6107876;22;97013;-53
2023/03/20 07:35:44;;;;;;;4.10;2.13;;;14.20;99.90;;;14.35;54.13;101601.09;6110987;22;98426;-54
2023/03/20 07:38:10;;;;;;;3.77;2.00;;;14.20;99.90;;;14.49;54.06;101597.97;6106619;22;96977;-54
2023/03/20 07:40:35;;;;;;;6.63;3.43;;;14.30;99.90;;;14.40;51.07;101604.44;6110347;22;98622;-54
2023/03/20 07:43:01;;;;;;;8.30;2.70;;;14.40;99.90;;;14.37;53.47;101598.38;6108721;22;97356;-54
2023/03/20 07:45:27;;;;;;;5.57;2.70;;;14.30;99.90;;;14.42;52.02;101607.03;6111149;22;97170;-55
2023/03/20 07:47:53;;;;;;;4.30;2.10;;;14.40;99.90;;;14.46;53.53;101606.88;6110526;22;105525;-54
2023/03/20 07:50:19;;;;;;;2.70;2.00;;;14.50;99.90;;;14.46;53.17;101601.56;6104808;22;97179;-54
2023/03/20 07:52:50;;;;;;;5.03;2.30;;;14.40;99.90;;;13.73;55.63;101612.09;6112684;22;97132;-54
2023/03/20 07:55:16;;;;;;;6.87;2.77;;;13.60;99.90;;;14.12;54.71;101609.88;6104697;22;97511;-49
2023/03/20 07:57:43;;;;;;;8.10;3.23;;;14.00;99.90;;;14.18;51.97;101614.09;6109955;22;102402;-56
2023/03/20 08:00:10;;;;;;;9.23;2.83;;;14.10;99.90;;;14.03;53.43;101615.47;6105311;22;104308;-53
2023/03/20 08:02:36;;;;;;;6.87;2.23;;;13.90;99.90;;;14.17;53.92;101626.47;6111471;22;97467;-49
2023/03/20 08:05:02;;;;;;;5.53;2.30;;;14.00;99.90;;;14.11;51.37;101617.88;6106210;22;98454;-44
2023/03/20 08:07:30;;;;;;;4.27;2.10;;;14.10;99.90;;;14.14;52.83;101628.38;6110746;22;98466;-51
2023/03/20 08:09:57;;;;;;;5.33;2.10;;;14.20;99.90;;;14.06;50.67;101636.63;6107580;22;96605;-51
2023/03/20 08:12:22;;;;;;;3.63;2.17;;;14.20;99.90;;;14.19;50.76;101637.94;6110963;22;97060;-50
2023/03/20 08:14:48;;;;;;;4.47;2.73;;;14.30;99.90;;;14.19;52.22;101632.63;6109342;22;97295;-50
2023/03/20 08:17:14;;;;;;;6.43;2.20;;;14.30;99.90;;;14.22;52.32;101631.66;6107497;22;97179;-52
2023/03/20 08:19:40;;;;;;;3.50;1.63;;;14.30;99.90;;;14.23;53.55;101634.25;6111084;22;97145;-51
2023/03/20 08:22:06;;;;;;;2.23;1.30;;;14.30;99.90;;;14.31;53.80;101641.91;6106837;22;97042;-55
2023/03/20 08:24:31;;;;;;;3.93;2.00;;;14.40;99.90;;;14.30;52.46;101638.41;6110027;22;99416;-51
2023/03/20 08:26:57;;;;;;;6.17;2.23;;;14.50;99.90;;;14.34;51.56;101631.22;6104889;22;97779;-52
2023/03/20 08:29:23;;;;;;;6.63;2.03;;;14.50;99.90;;;14.37;49.33;101630.22;6109419;22;97148;-54
2023/03/20 08:31:49;;;;;;;5.53;2.60;;;14.60;99.90;;;14.37;53.44;101635.53;6110908;22;97311;-51
2023/03/20 08:34:15;;;;;;;3.70;2.00;;;14.40;99.90;;;14.19;49.80;101637.06;6106705;22;96858;-54
2023/03/20 08:36:41;;;;;;;3.53;1.97;;;14.20;99.90;;;14.18;50.43;101643.28;6114330;22;97306;-53
2023/03/20 08:39:08;;;;;;;4.60;2.37;;;14.10;99.90;;;14.30;53.03;101640.19;6108295;22;97376;-53
2023/03/20 08:41:37;;;;;;;3.83;2.00;;;14.30;99.90;;;14.29;49.72;101644.63;6111291;22;99344;-54
2023/03/20 08:44:05;;;;;;;3.37;1.50;;;14.40;99.90;;;14.29;53.57;101646.41;6081146;22;98001;-54
2023/03/20 08:46:31;;;;;;;5.63;2.07;;;14.30;99.90;;;14.36;50.85;101645.28;6112159;22;97865;-53
2023/03/20 08:48:57;;;;;;;4.97;2.40;;;14.40;99.90;;;14.38;52.86;101646.09;6104715;22;97505;-52
2023/03/20 08:51:24;;;;;;;3.03;2.00;;;14.40;99.90;;;14.41;51.62;101648.63;6085959;22;97140;-54
2023/03/20 08:53:50;;;;;;;5.30;2.00;;;14.50;99.90;;;14.45;52.65;101650.28;6108377;22;99132;-51
2023/03/20 08:56:16;;;;;;;3.77;2.03;;;14.60;99.90;;;14.33;49.07;101639.25;6107144;22;96837;-53
2023/03/20 08:58:42;;;;;;;4.80;2.47;;;14.50;99.90;;;14.25;50.74;101652.75;6110467;22;97456;-52
2023/03/20 09:01:10;;;;;;;5.53;2.17;;;14.30;99.90;;;14.12;52.25;101646.16;6080875;22;97249;-58
2023/03/20 09:03:36;;;;;;;3.93;2.03;;;14.00;99.90;;;14.09;49.72;101646.25;6112679;22;97551;-48
2023/03/20 09:06:07;;;;;;;4.53;2.73;;;14.10;99.90;;;14.04;52.60;101642.91;6110126;22;97395;-52
2023/03/20 09:08:34;;;;;;;4.03;1.80;;;13.90;99.90;;;14.08;50.63;101644.53;6110267;22;96878;-50
2023/03/20 09:11:00;;;;;;;5.17;2.50;;;13.90;99.90;;;14.05;52.05;101644.63;6108054;22;97196;-54
2023/03/20 09:13:26;;;;;;;5.43;2.90;;;14.00;99.90;;;14.09;50.93;101646.25;6109541;22;97898;-53
2023/03/20 09:15:54;;;;;;;3.30;1.37;;;14.10;99.90;;;14.14;53.79;101644.31;6113317;22;97083;-50
2023/03/20 09:18:21;;;;;;;5.07;2.63;;;14.10;99.90;;;14.20;49.20;101646.75;6108004;22;97479;-53
2023/03/20 09:20:47;;;;;;;5.07;1.83;;;14.30;99.90;;;14.21;52.56;101645.84;6112884;22;97366;-50
2023/03/20 09:23:13;;;;;;;5.70;2.30;;;14.30;99.90;;;14.33;51.47;101649.84;6108638;22;97222;-50
2023/03/20 09:25:39;;;;;;;5.80;2.60;;;14.50;99.90;;;14.37;51.48;101647.03;6086474;22;97316;-56
2023/03/20 09:28:05;;;;;;;4.90;2.20;;;14.60;99.90;;;14.36;48.70;101647.94;6108342;22;97618;-50
2023/03/20 09:30:31;;;;;;;2.67;1.50;;;14.60;99.90;;;14.28;46.63;101650.00;6115523;22;97361;-51
2023/03/20 09:32:57;;;;;;;4.13;2.63;;;14.60;99.90;;;14.32;50.73;101643.69;6107561;22;97454;-53
2023/03/20 09:35:23;;;;;;;4.90;2.03;;;14.60;99.90;;;14.47;49.46;101645.81;6112198;22;97588;-50
2023/03/20 09:37:49;;;;;;;4.07;2.33;;;14.80;99.90;;;14.05;48.52;101644.63;6097710;22;98201;-44
2023/03/20 09:40:27;;;;;;;3.97;1.43;;;14.40;99.90;;;14.36;51.96;101644.44;6106098;22;97119;-50
2023/03/20 09:43:46;;;;;;;4.00;1.73;;;14.60;99.90;;;14.46;48.67;101646.72;6086357;22;97428;-50
2023/03/20 09:47:07;;;;;;;4.33;1.83;;;14.70;99.90;;;14.34;47.83;101646.28;6086641;22;100478;-50
2023/03/20 09:49:48;;;;;;;6.87;2.03;;;14.60;99.90;;;14.23;50.56;101638.69;6082179;22;97663;-52
2023/03/20 09:52:30;;;;;;;4.27;1.87;;;14.40;99.90;;;14.26;50.02;101641.22;6109319;22;99096;-49
2023/03/20 09:55:21;;;;;;;3.47;1.80;;;14.40;99.90;;;14.27;49.91;101645.59;6107792;22;98524;-54
2023/03/20 09:57:56;;;;;;;6.00;2.70;;;14.40;99.90;;;14.15;48.38;101646.91;6085170;22;97737;-52
2023/03/20 10:00:30;;;;;;;3.63;1.93;;;14.20;99.90;;;14.05;50.53;101639.34;6110387;22;97069;-53
2023/03/20 10:03:06;;;;;;;4.83;2.00;;;14.10;99.90;;;14.07;49.23;101646.31;6079373;22;97516;-52
2023/03/20 10:05:43;;;;;;;5.03;2.20;;;14.00;99.90;;;14.02;48.38;101639.41;6108406;22;97068;-50
2023/03/20 10:08:17;;;;;;;6.27;2.90;;;14.10;99.90;;;13.97;48.28;101643.09;6106138;22;98108;-50
2023/03/20 10:11:15;;;;;;;3.63;2.10;;;14.10;99.90;;;14.04;49.97;101640.25;6087023;22;97217;-52
2023/03/20 10:14:08;;;;;;;5.43;2.23;;;14.20;99.90;;;14.17;50.72;101638.88;6109412;22;97441;-51
2023/03/20 10:16:58;;;;;;;6.10;2.20;;;14.30;99.90;;;14.40;52.33;101635.44;6107206;22;100113;-55
2023/03/20 10:19:56;;;;;;;3.93;1.73;;;14.50;99.90;;;14.55;49.57;101641.06;6107794;22;103684;-47
2023/03/20 10:22:40;;;;;;;4.20;2.07;;;14.80;99.90;;;14.68;51.61;101643.28;6105764;22;98080;-46
2023/03/20 10:25:31;;;;;;;3.67;1.80;;;14.80;99.90;;;14.67;48.71;101641.56;6109376;22;97035;-54
2023/03/20 10:28:05;;;;;;;3.37;1.40;;;14.80;99.90;;;14.21;45.16;101644.06;6108256;22;97508;-54
2023/03/20 10:30:49;;;;;;;1.87;1.13;;;14.40;99.90;;;14.27;47.74;101635.00;6086423;22;97376;-50